Time;durP1;ratioP1;P1;durP2;ratioP2;P2;SDS_P1;SDS_P2;PMS_P1;PMS_P2;Temp;Humidity;BMP_temperature;BMP_pressure;BME280_temperature;BME280_humidity;BME280_pressure;Samples;Min_cycle;Max_cycle;Signal;HPM_P1;HPM_P2
2023/11/22 00:00:33;;;;;;;5.00;4.50;;;;;;;;;;4963931;28;20226;-87
2023/11/22 00:02:59;;;;;;;6.20;5.20;;;;;;;;;;4978228;28;20217;-86
2023/11/22 00:05:24;;;;;;;5.20;4.70;;;;;;;;;;4947394;28;20226;-86
2023/11/22 00:07:52;;;;;;;5.10;4.63;;;;;;;;;;4978234;28;20217;-88
2023/11/22 00:10:18;;;;;;;6.50;4.83;;;;;;;;;;4947297;28;20226;-87
2023/11/22 00:12:44;;;;;;;5.30;4.80;;;;;;;;;;4966463;28;20800;-88
2023/11/22 00:15:12;;;;;;;5.47;4.83;;;;;;;;;;4946213;28;20313;-87
2023/11/22 00:17:38;;;;;;;5.03;4.63;;;;;;;;;;4963429;28;20225;-87
2023/11/22 00:20:05;;;;;;;5.60;5.00;;;;;;;;;;4930521;28;20245;-85
2023/11/22 00:22:33;;;;;;;5.70;5.17;;;;;;;;;;4940358;29;20222;-87
2023/11/22 00:25:01;;;;;;;6.90;5.33;;;;;;;;;;4970070;28;20280;-87
2023/11/22 00:27:31;;;;;;;5.83;5.03;;;;;;;;;;4927111;28;20839;-87
2023/11/22 00:29:57;;;;;;;5.40;4.90;;;;;;;;;;4942184;28;20285;-87
2023/11/22 00:32:23;;;;;;;8.93;7.07;;;;;;;;;;4941469;28;20233;-87
2023/11/22 00:34:49;;;;;;;9.07;5.80;;;;;;;;;;4943078;28;20236;-87
2023/11/22 00:37:15;;;;;;;6.83;5.70;;;;;;;;;;4955646;28;20218;-87
2023/11/22 00:39:41;;;;;;;5.37;4.90;;;;;;;;;;4971345;28;20602;-85
2023/11/22 00:42:09;;;;;;;6.60;5.30;;;;;;;;;;4955870;28;20233;-85
2023/11/22 00:44:37;;;;;;;6.23;5.63;;;;;;;;;;4957169;28;20222;-85
2023/11/22 00:47:06;;;;;;;6.03;5.47;;;;;;;;;;4961706;28;20245;-85
2023/11/22 00:49:32;;;;;;;5.97;5.37;;;;;;;;;;4951493;28;20231;-86
2023/11/22 00:51:58;;;;;;;7.33;5.57;;;;;;;;;;4977590;28;20291;-86
2023/11/22 00:54:26;;;;;;;7.57;6.10;;;;;;;;;;4950256;28;20230;-87
2023/11/22 00:56:52;;;;;;;6.23;5.67;;;;;;;;;;4957504;28;20732;-87
2023/11/22 00:59:19;;;;;;;5.80;5.20;;;;;;;;;;4935200;28;20282;-87
2023/11/22 01:01:45;;;;;;;6.57;5.40;;;;;;;;;;4955265;28;20241;-85
2023/11/22 01:04:13;;;;;;;8.70;6.17;;;;;;;;;;4949095;28;20250;-85
2023/11/22 01:06:40;;;;;;;8.67;6.70;;;;;;;;;;4924449;28;20631;-86
2023/11/22 01:09:08;;;;;;;7.43;6.40;;;;;;;;;;4941578;28;20718;-86
2023/11/22 01:11:35;;;;;;;10.03;7.93;;;;;;;;;;4955128;28;20218;-87
2023/11/22 01:14:02;;;;;;;6.90;6.27;;;;;;;;;;4945207;28;20762;-86
2023/11/22 01:16:30;;;;;;;6.67;6.07;;;;;;;;;;4941469;28;20276;-86
2023/11/22 01:18:56;;;;;;;10.93;6.50;;;;;;;;;;4957059;28;20272;-84
2023/11/22 01:21:22;;;;;;;7.00;6.30;;;;;;;;;;4952116;28;20595;-85
2023/11/22 01:23:47;;;;;;;7.90;7.20;;;;;;;;;;4958221;28;20664;-85
2023/11/22 01:26:13;;;;;;;8.73;7.37;;;;;;;;;;4949108;28;20225;-84
2023/11/22 01:28:44;;;;;;;7.77;7.17;;;;;;;;;;4953066;28;20246;-87
2023/11/22 01:31:11;;;;;;;11.13;7.87;;;;;;;;;;4936154;28;20225;-86
2023/11/22 01:33:37;;;;;;;11.63;7.40;;;;;;;;;;4935508;29;20231;-88
2023/11/22 01:36:02;;;;;;;8.83;6.60;;;;;;;;;;4947372;28;20214;-88
2023/11/22 01:38:30;;;;;;;7.13;6.33;;;;;;;;;;4949786;28;20231;-86
2023/11/22 01:41:03;;;;;;;8.43;6.03;;;;;;;;;;4953970;28;20230;-86
2023/11/22 01:43:28;;;;;;;6.70;6.00;;;;;;;;;;4952556;28;20222;-85
2023/11/22 01:46:00;;;;;;;5.87;5.37;;;;;;;;;;4951129;28;20253;-87
2023/11/22 01:48:26;;;;;;;7.10;6.50;;;;;;;;;;4964815;28;20230;-87
2023/11/22 01:50:51;;;;;;;6.53;5.93;;;;;;;;;;4975413;28;20233;-86
2023/11/22 01:53:17;;;;;;;7.10;6.50;;;;;;;;;;4957556;28;20225;-87
2023/11/22 01:55:43;;;;;;;8.27;7.07;;;;;;;;;;4975301;28;20221;-86
2023/11/22 01:58:09;;;;;;;6.80;6.27;;;;;;;;;;4959470;28;20256;-87
2023/11/22 02:00:51;;;;;;;8.20;7.13;;;;;;;;;;4966204;28;20221;-87
2023/11/22 02:03:17;;;;;;;7.67;6.90;;;;;;;;;;4958304;28;20555;-86
2023/11/22 02:05:43;;;;;;;7.93;7.13;;;;;;;;;;4957757;28;20237;-87
2023/11/22 02:08:12;;;;;;;6.70;6.10;;;;;;;;;;4962676;28;20221;-85
2023/11/22 02:10:38;;;;;;;7.50;6.50;;;;;;;;;;4974413;28;20221;-87
2023/11/22 02:13:05;;;;;;;8.67;6.37;;;;;;;;;;4948720;28;20226;-85
2023/11/22 02:15:31;;;;;;;8.00;7.27;;;;;;;;;;4944455;28;20241;-87
2023/11/22 02:18:02;;;;;;;7.97;6.43;;;;;;;;;;4943083;28;21181;-87
2023/11/22 02:20:28;;;;;;;10.33;7.63;;;;;;;;;;4959106;28;20217;-87
2023/11/22 02:22:54;;;;;;;8.53;7.63;;;;;;;;;;4940967;28;20262;-88
2023/11/22 02:25:20;;;;;;;8.43;7.63;;;;;;;;;;4961859;28;20230;-88
2023/11/22 02:27:50;;;;;;;8.27;7.47;;;;;;;;;;4939694;28;20228;-87
2023/11/22 02:30:18;;;;;;;8.57;7.70;;;;;;;;;;4950515;28;20672;-87
2023/11/22 02:32:46;;;;;;;7.73;6.93;;;;;;;;;;4968864;28;20232;-87
2023/11/22 02:35:13;;;;;;;8.73;6.90;;;;;;;;;;4957142;28;20225;-87
2023/11/22 02:37:38;;;;;;;10.40;7.43;;;;;;;;;;4939710;28;20219;-86
2023/11/22 02:40:09;;;;;;;7.43;6.67;;;;;;;;;;4955425;28;20218;-87
2023/11/22 02:42:35;;;;;;;7.80;7.07;;;;;;;;;;4962579;28;20219;-87
2023/11/22 02:45:01;;;;;;;8.30;7.43;;;;;;;;;;4958573;28;20256;-86
2023/11/22 02:47:31;;;;;;;7.83;6.90;;;;;;;;;;4954072;28;20245;-87
2023/11/22 02:49:57;;;;;;;8.30;6.90;;;;;;;;;;4940214;28;20587;-87
2023/11/22 02:52:25;;;;;;;8.97;7.53;;;;;;;;;;4951418;28;20210;-85
2023/11/22 02:54:53;;;;;;;7.60;6.90;;;;;;;;;;4957275;28;20230;-85
2023/11/22 02:57:21;;;;;;;12.40;7.07;;;;;;;;;;4942913;28;20225;-86
2023/11/22 02:59:49;;;;;;;8.73;7.40;;;;;;;;;;4958737;28;20214;-87
2023/11/22 03:02:17;;;;;;;8.40;6.97;;;;;;;;;;4945557;28;20278;-85
2023/11/22 03:04:45;;;;;;;11.47;7.73;;;;;;;;;;4954592;28;20229;-87
2023/11/22 03:07:12;;;;;;;8.30;7.50;;;;;;;;;;4924173;28;20210;-87
2023/11/22 03:09:38;;;;;;;10.17;7.77;;;;;;;;;;4959440;28;20296;-86
2023/11/22 03:12:04;;;;;;;9.17;7.73;;;;;;;;;;4952493;28;20226;-88
2023/11/22 03:14:29;;;;;;;15.80;9.20;;;;;;;;;;4939903;28;20325;-88
2023/11/22 03:16:57;;;;;;;15.70;8.37;;;;;;;;;;4970680;28;20591;-86
2023/11/22 03:19:24;;;;;;;8.57;7.87;;;;;;;;;;4954275;28;20234;-85
2023/11/22 03:21:49;;;;;;;10.63;8.73;;;;;;;;;;4946038;28;20225;-85
2023/11/22 03:24:15;;;;;;;11.90;9.03;;;;;;;;;;4940810;28;20259;-86
2023/11/22 03:26:45;;;;;;;8.90;8.00;;;;;;;;;;4959460;28;20206;-86
2023/11/22 03:29:16;;;;;;;9.30;8.37;;;;;;;;;;4956353;28;20229;-88
2023/11/22 03:31:42;;;;;;;10.10;8.40;;;;;;;;;;4956060;28;20221;-86
2023/11/22 03:34:09;;;;;;;8.83;7.97;;;;;;;;;;4931950;28;20214;-86
2023/11/22 03:36:37;;;;;;;11.40;9.43;;;;;;;;;;4944758;28;20225;-86
2023/11/22 03:39:06;;;;;;;10.97;8.10;;;;;;;;;;4961571;28;20219;-84
2023/11/22 03:41:32;;;;;;;11.17;9.07;;;;;;;;;;4928460;28;20273;-85
2023/11/22 03:43:58;;;;;;;8.77;7.87;;;;;;;;;;4955172;28;20231;-84
2023/11/22 03:46:27;;;;;;;8.80;7.87;;;;;;;;;;4938896;28;20218;-86
2023/11/22 03:48:53;;;;;;;11.33;8.20;;;;;;;;;;4953104;28;20222;-86
2023/11/22 03:51:18;;;;;;;10.73;7.87;;;;;;;;;;4940602;28;20231;-85
2023/11/22 03:53:48;;;;;;;10.73;7.80;;;;;;;;;;4947756;29;20223;-86
2023/11/22 03:56:14;;;;;;;11.17;8.30;;;;;;;;;;4931319;28;20225;-85
2023/11/22 03:58:42;;;;;;;9.83;8.17;;;;;;;;;;4958677;28;20284;-86
2023/11/22 04:04:54;;;;;;;9.57;7.07;;;;;;;;;;4955195;28;20314;-86
2023/11/22 04:07:20;;;;;;;9.80;8.47;;;;;;;;;;4952531;28;20221;-85
2023/11/22 04:09:45;;;;;;;10.27;8.07;;;;;;;;;;4947880;28;20222;-85
2023/11/22 04:12:16;;;;;;;10.47;7.47;;;;;;;;;;4958819;28;20245;-86
2023/11/22 04:14:42;;;;;;;8.77;7.17;;;;;;;;;;4959909;28;20666;-87
2023/11/22 04:17:10;;;;;;;9.07;7.97;;;;;;;;;;4970213;28;20214;-86
2023/11/22 04:19:38;;;;;;;9.60;8.27;;;;;;;;;;4959309;28;20751;-85
2023/11/22 04:22:06;;;;;;;9.40;8.40;;;;;;;;;;4940371;28;20221;-86
2023/11/22 04:24:34;;;;;;;10.50;8.13;;;;;;;;;;4970586;28;20589;-86
2023/11/22 04:27:02;;;;;;;9.67;8.27;;;;;;;;;;4939210;29;20230;-85
2023/11/22 04:29:30;;;;;;;9.13;8.03;;;;;;;;;;4955153;28;20222;-85
2023/11/22 04:31:55;;;;;;;13.87;9.47;;;;;;;;;;4953988;29;20811;-86
2023/11/22 04:34:21;;;;;;;8.97;8.07;;;;;;;;;;4941315;28;20273;-86
2023/11/22 04:36:47;;;;;;;9.37;8.37;;;;;;;;;;4957184;29;20230;-85
2023/11/22 04:39:15;;;;;;;10.20;8.10;;;;;;;;;;4963320;28;20254;-85
2023/11/22 04:41:41;;;;;;;10.50;7.37;;;;;;;;;;4958489;28;20214;-84
2023/11/22 04:44:07;;;;;;;7.67;6.97;;;;;;;;;;4959935;28;20234;-85
2023/11/22 04:46:33;;;;;;;9.13;8.07;;;;;;;;;;4971477;28;20218;-85
2023/11/22 04:48:58;;;;;;;9.47;8.53;;;;;;;;;;4963416;28;20655;-86
2023/11/22 04:51:24;;;;;;;8.37;7.43;;;;;;;;;;4942412;28;20687;-85
2023/11/22 04:53:51;;;;;;;9.53;7.73;;;;;;;;;;4950143;28;20274;-84
2023/11/22 04:56:17;;;;;;;9.00;8.10;;;;;;;;;;4958380;28;20233;-85
2023/11/22 04:58:42;;;;;;;9.93;8.47;;;;;;;;;;4926087;28;20226;-86
2023/11/22 05:01:09;;;;;;;8.83;7.90;;;;;;;;;;4954542;28;20218;-86
2023/11/22 05:03:35;;;;;;;9.00;8.10;;;;;;;;;;4927324;28;20233;-85
2023/11/22 05:06:03;;;;;;;9.67;8.67;;;;;;;;;;4941101;28;20234;-81
2023/11/22 05:08:30;;;;;;;9.60;8.37;;;;;;;;;;4970420;28;20218;-82
2023/11/22 05:10:56;;;;;;;9.93;8.53;;;;;;;;;;4941773;28;20252;-81
2023/11/22 05:13:24;;;;;;;9.60;8.67;;;;;;;;;;4957117;28;20230;-81
2023/11/22 05:15:50;;;;;;;11.37;8.40;;;;;;;;;;4957865;28;20225;-80
2023/11/22 05:18:18;;;;;;;8.83;7.83;;;;;;;;;;4941628;28;20249;-80
2023/11/22 05:20:48;;;;;;;9.47;7.47;;;;;;;;;;4988153;28;20282;-79
2023/11/22 05:23:16;;;;;;;8.90;8.00;;;;;;;;;;4940023;28;20236;-81
2023/11/22 05:25:44;;;;;;;9.13;7.90;;;;;;;;;;4942210;28;20296;-80
2023/11/22 05:28:11;;;;;;;10.53;8.47;;;;;;;;;;4940236;28;20221;-79
2023/11/22 05:30:37;;;;;;;9.50;7.83;;;;;;;;;;4954594;28;20810;-78
2023/11/22 05:33:03;;;;;;;9.03;8.13;;;;;;;;;;4937596;28;20214;-81
2023/11/22 05:35:31;;;;;;;9.13;7.77;;;;;;;;;;4969917;28;20324;-80
2023/11/22 05:37:59;;;;;;;9.97;8.07;;;;;;;;;;4970443;28;20352;-79
2023/11/22 05:40:27;;;;;;;10.07;7.87;;;;;;;;;;4969735;28;20707;-82
2023/11/22 05:42:52;;;;;;;9.47;8.53;;;;;;;;;;4952477;28;20606;-80
2023/11/22 05:45:18;;;;;;;10.13;8.20;;;;;;;;;;4953881;28;20242;-80
2023/11/22 05:47:43;;;;;;;10.83;9.23;;;;;;;;;;4956216;28;20226;-80
2023/11/22 05:50:09;;;;;;;11.33;8.20;;;;;;;;;;4936716;28;20222;-80
2023/11/22 05:52:39;;;;;;;9.60;7.97;;;;;;;;;;4953315;28;20337;-79
2023/11/22 05:55:08;;;;;;;9.37;8.23;;;;;;;;;;4967702;28;20221;-79
2023/11/22 05:57:34;;;;;;;11.13;8.20;;;;;;;;;;4937169;28;20224;-80
2023/11/22 05:59:59;;;;;;;9.63;8.47;;;;;;;;;;4952658;28;20299;-79
2023/11/22 06:02:25;;;;;;;9.00;7.53;;;;;;;;;;4951498;28;20627;-81
2023/11/22 06:04:52;;;;;;;9.40;7.80;;;;;;;;;;4951528;28;20229;-80
2023/11/22 06:07:18;;;;;;;16.83;8.50;;;;;;;;;;4952645;28;20715;-80
2023/11/22 06:09:44;;;;;;;10.53;8.03;;;;;;;;;;4970932;28;20229;-82
2023/11/22 06:12:12;;;;;;;10.67;7.87;;;;;;;;;;4919406;28;20218;-83
2023/11/22 06:14:40;;;;;;;8.90;8.07;;;;;;;;;;4967626;28;20237;-81
2023/11/22 06:17:08;;;;;;;10.70;7.97;;;;;;;;;;4952773;28;20330;-82
2023/11/22 06:19:33;;;;;;;9.73;8.13;;;;;;;;;;4953017;28;20226;-82
2023/11/22 06:22:01;;;;;;;9.10;7.67;;;;;;;;;;4967229;28;20566;-80
2023/11/22 06:24:28;;;;;;;9.20;7.60;;;;;;;;;;4968872;28;20242;-80
2023/11/22 06:26:53;;;;;;;9.00;7.73;;;;;;;;;;4984682;28;20210;-80
2023/11/22 06:29:20;;;;;;;8.80;7.80;;;;;;;;;;4923543;28;20611;-79
2023/11/22 06:31:48;;;;;;;11.37;7.97;;;;;;;;;;4954167;28;20305;-81
2023/11/22 06:34:13;;;;;;;10.50;8.03;;;;;;;;;;4971157;28;20582;-80
2023/11/22 06:36:39;;;;;;;10.07;7.97;;;;;;;;;;4950558;28;20219;-80
2023/11/22 06:39:08;;;;;;;9.03;7.63;;;;;;;;;;4933726;28;20250;-80
2023/11/22 06:41:34;;;;;;;9.40;7.60;;;;;;;;;;4925701;28;20250;-80
2023/11/22 06:44:03;;;;;;;10.03;8.33;;;;;;;;;;4951585;28;20226;-80
2023/11/22 06:46:28;;;;;;;8.90;7.43;;;;;;;;;;4951120;28;20225;-80
2023/11/22 06:48:56;;;;;;;9.13;8.13;;;;;;;;;;4932149;28;20235;-80
2023/11/22 06:51:24;;;;;;;8.37;7.53;;;;;;;;;;4947681;28;20759;-79
2023/11/22 06:53:52;;;;;;;8.87;7.90;;;;;;;;;;4949693;28;20276;-79
2023/11/22 06:56:19;;;;;;;9.40;7.63;;;;;;;;;;4945320;28;20218;-79
2023/11/22 06:58:45;;;;;;;10.73;9.03;;;;;;;;;;4950234;28;20313;-81
2023/11/22 07:01:11;;;;;;;10.43;8.53;;;;;;;;;;4956357;28;20237;-81
2023/11/22 07:03:37;;;;;;;12.13;7.87;;;;;;;;;;4958683;28;20233;-80
2023/11/22 07:06:04;;;;;;;9.33;8.03;;;;;;;;;;4950420;28;20309;-80
2023/11/22 07:08:30;;;;;;;8.57;7.73;;;;;;;;;;4931608;28;20232;-80
2023/11/22 07:10:59;;;;;;;8.10;7.30;;;;;;;;;;4947664;28;20289;-80
2023/11/22 07:13:24;;;;;;;8.87;8.03;;;;;;;;;;4921586;28;20250;-81
2023/11/22 07:15:51;;;;;;;10.03;7.83;;;;;;;;;;4949041;28;20241;-79
2023/11/22 07:18:16;;;;;;;9.57;7.97;;;;;;;;;;4947437;28;20222;-80
2023/11/22 07:20:42;;;;;;;15.17;8.50;;;;;;;;;;4947404;28;20924;-80
2023/11/22 07:23:13;;;;;;;9.03;7.77;;;;;;;;;;4947445;28;20214;-80
2023/11/22 07:25:41;;;;;;;10.87;9.00;;;;;;;;;;4987663;28;20234;-79
2023/11/22 07:28:07;;;;;;;9.67;8.60;;;;;;;;;;4965108;28;20205;-78
2023/11/22 07:30:33;;;;;;;8.27;7.33;;;;;;;;;;4966792;28;20232;-79
2023/11/22 07:33:01;;;;;;;9.00;8.07;;;;;;;;;;4967049;28;20210;-80
2023/11/22 07:35:28;;;;;;;10.77;9.17;;;;;;;;;;4967266;28;20229;-78
2023/11/22 07:37:56;;;;;;;9.50;8.60;;;;;;;;;;4969356;28;20213;-79
2023/11/22 07:40:22;;;;;;;13.23;8.93;;;;;;;;;;4966405;28;20207;-79
2023/11/22 07:42:47;;;;;;;9.83;8.90;;;;;;;;;;4968878;28;20281;-80
2023/11/22 07:45:13;;;;;;;9.70;8.77;;;;;;;;;;4943006;28;20226;-83
2023/11/22 07:47:43;;;;;;;11.90;9.63;;;;;;;;;;4953446;28;20230;-83
2023/11/22 07:50:11;;;;;;;9.20;8.23;;;;;;;;;;4951197;28;20290;-81
2023/11/22 07:52:39;;;;;;;9.83;8.83;;;;;;;;;;4951019;28;20230;-81
2023/11/22 07:55:09;;;;;;;9.40;8.50;;;;;;;;;;4943786;28;20231;-82
2023/11/22 07:57:35;;;;;;;9.90;8.93;;;;;;;;;;4948673;28;20230;-80
2023/11/22 08:00:04;;;;;;;9.10;8.30;;;;;;;;;;4938764;28;20220;-79
2023/11/22 08:02:40;;;;;;;8.47;7.63;;;;;;;;;;4951587;28;20265;-81
2023/11/22 08:05:11;;;;;;;11.17;8.73;;;;;;;;;;4951387;28;20233;-82
2023/11/22 08:07:40;;;;;;;10.97;9.13;;;;;;;;;;4950192;28;20253;-81
2023/11/22 08:10:27;;;;;;;11.73;9.57;;;;;;;;;;4958531;28;20227;-82
2023/11/22 08:12:53;;;;;;;9.60;8.23;;;;;;;;;;4950669;28;20311;-80
2023/11/22 08:15:19;;;;;;;8.90;8.03;;;;;;;;;;4951400;28;20219;-81
2023/11/22 08:17:46;;;;;;;9.13;8.10;;;;;;;;;;4950170;28;20233;-82
2023/11/22 08:20:17;;;;;;;8.53;7.53;;;;;;;;;;4946707;28;20226;-82
2023/11/22 08:22:46;;;;;;;9.53;7.63;;;;;;;;;;4932737;28;20317;-81
2023/11/22 08:25:12;;;;;;;7.77;7.00;;;;;;;;;;4937164;28;20285;-84
2023/11/22 08:27:43;;;;;;;7.90;7.20;;;;;;;;;;4938315;28;20226;-86
2023/11/22 08:30:13;;;;;;;8.30;7.40;;;;;;;;;;4942887;28;20235;-83
2023/11/22 08:32:51;;;;;;;8.30;7.43;;;;;;;;;;4945408;28;20257;-83
2023/11/22 08:35:16;;;;;;;7.97;7.17;;;;;;;;;;4948077;28;20226;-85
2023/11/22 08:37:42;;;;;;;8.90;8.00;;;;;;;;;;4942474;28;20225;-85
2023/11/22 08:40:20;;;;;;;8.40;7.67;;;;;;;;;;4940358;28;20222;-84
2023/11/22 08:42:48;;;;;;;9.10;8.30;;;;;;;;;;4961748;28;20246;-82
2023/11/22 08:45:16;;;;;;;9.43;8.43;;;;;;;;;;4944510;28;21839;-86
2023/11/22 08:47:42;;;;;;;9.07;8.17;;;;;;;;;;4945383;28;20223;-84
2023/11/22 08:50:16;;;;;;;9.13;7.50;;;;;;;;;;4924427;28;20211;-82
2023/11/22 08:52:44;;;;;;;8.60;7.57;;;;;;;;;;4926836;28;20778;-82
2023/11/22 08:55:10;;;;;;;9.03;8.17;;;;;;;;;;4930343;28;20231;-86
2023/11/22 08:57:40;;;;;;;9.37;8.47;;;;;;;;;;4945690;28;20218;-87
2023/11/22 09:00:08;;;;;;;8.20;7.40;;;;;;;;;;4947382;28;20242;-83
2023/11/22 09:02:36;;;;;;;11.10;8.27;;;;;;;;;;4947172;28;20718;-82
2023/11/22 09:05:06;;;;;;;107.57;85.77;;;;;;;;;;4943728;28;20241;-84
2023/11/22 09:07:35;;;;;;;25.67;22.97;;;;;;;;;;4946956;28;20228;-83
2023/11/22 09:10:09;;;;;;;12.30;11.00;;;;;;;;;;4944144;28;20223;-82
2023/11/22 09:12:39;;;;;;;16.30;14.23;;;;;;;;;;4942442;28;20240;-83
2023/11/22 09:15:11;;;;;;;17.77;15.87;;;;;;;;;;4945687;28;20221;-81
2023/11/22 09:17:43;;;;;;;16.30;14.77;;;;;;;;;;4937657;28;20233;-83
2023/11/22 09:20:17;;;;;;;12.10;10.87;;;;;;;;;;4941882;28;20602;-83
2023/11/22 09:22:50;;;;;;;11.33;10.33;;;;;;;;;;4945126;28;20244;-86
2023/11/22 09:25:27;;;;;;;12.60;11.40;;;;;;;;;;4946865;28;20623;-84
2023/11/22 09:27:55;;;;;;;12.27;11.17;;;;;;;;;;4937802;28;20233;-83
2023/11/22 09:30:34;;;;;;;12.97;11.80;;;;;;;;;;4948056;28;20249;-82
2023/11/22 09:33:11;;;;;;;13.70;11.47;;;;;;;;;;4938952;28;20618;-83
2023/11/22 09:35:39;;;;;;;12.07;10.87;;;;;;;;;;4944909;28;20376;-84
2023/11/22 09:38:12;;;;;;;10.80;9.73;;;;;;;;;;4942845;28;20277;-82
2023/11/22 09:40:45;;;;;;;10.20;8.87;;;;;;;;;;4924962;28;20242;-84
2023/11/22 09:43:15;;;;;;;10.60;9.50;;;;;;;;;;4943920;28;20242;-85
2023/11/22 09:45:40;;;;;;;12.37;10.50;;;;;;;;;;4945221;28;20603;-84
2023/11/22 09:48:16;;;;;;;11.33;10.30;;;;;;;;;;4944373;28;20222;-82
2023/11/22 09:50:57;;;;;;;13.67;12.13;;;;;;;;;;4939822;28;20233;-82
2023/11/22 09:53:30;;;;;;;14.40;12.97;;;;;;;;;;4940105;28;20689;-83
2023/11/22 09:56:01;;;;;;;13.87;12.57;;;;;;;;;;4946157;28;20282;-81
2023/11/22 09:58:30;;;;;;;13.60;12.30;;;;;;;;;;4940146;28;20321;-80
2023/11/22 10:00:58;;;;;;;14.90;12.90;;;;;;;;;;4950389;28;20250;-81
2023/11/22 10:03:25;;;;;;;13.93;12.53;;;;;;;;;;4947042;28;20241;-84
2023/11/22 10:05:53;;;;;;;12.90;11.80;;;;;;;;;;4950981;28;20318;-83
2023/11/22 10:08:22;;;;;;;11.03;10.13;;;;;;;;;;4946876;28;20313;-82
2023/11/22 10:10:51;;;;;;;12.17;9.07;;;;;;;;;;4941168;28;20226;-83
2023/11/22 10:13:20;;;;;;;9.43;8.63;;;;;;;;;;4934537;28;20233;-83
2023/11/22 10:15:52;;;;;;;9.70;8.00;;;;;;;;;;4949132;28;20226;-82
2023/11/22 10:18:18;;;;;;;7.00;6.37;;;;;;;;;;4951072;28;20599;-83
2023/11/22 10:20:47;;;;;;;6.93;6.33;;;;;;;;;;4934201;28;20302;-85
2023/11/22 10:23:14;;;;;;;8.27;6.20;;;;;;;;;;4949770;28;20221;-81
2023/11/22 10:25:43;;;;;;;7.37;6.57;;;;;;;;;;4936178;28;20700;-81
2023/11/22 10:28:11;;;;;;;7.10;6.00;;;;;;;;;;4950031;28;20269;-80
2023/11/22 10:30:37;;;;;;;6.40;5.80;;;;;;;;;;4945368;28;20214;-83
2023/11/22 10:33:02;;;;;;;6.90;6.20;;;;;;;;;;4950226;28;20230;-82
2023/11/22 10:35:28;;;;;;;8.53;5.83;;;;;;;;;;4952509;28;20241;-84
2023/11/22 10:37:54;;;;;;;5.47;4.97;;;;;;;;;;4936040;28;20249;-83
2023/11/22 10:40:21;;;;;;;4.93;4.53;;;;;;;;;;4948793;28;20231;-82
2023/11/22 10:42:48;;;;;;;4.73;4.33;;;;;;;;;;4949986;28;20240;-82
2023/11/22 10:45:14;;;;;;;4.67;4.23;;;;;;;;;;4949638;28;20593;-81
2023/11/22 10:47:42;;;;;;;7.77;4.50;;;;;;;;;;4949618;28;20234;-83
2023/11/22 10:50:12;;;;;;;4.73;4.27;;;;;;;;;;4951222;28;20221;-82
2023/11/22 10:52:40;;;;;;;5.17;4.43;;;;;;;;;;4965740;28;20253;-81
2023/11/22 10:55:06;;;;;;;5.40;4.23;;;;;;;;;;4951432;28;20780;-83
2023/11/22 10:57:35;;;;;;;5.03;4.53;;;;;;;;;;4948276;28;20334;-83
2023/11/22 11:00:07;;;;;;;5.33;4.27;;;;;;;;;;4967005;28;20218;-81
2023/11/22 11:02:49;;;;;;;5.43;4.00;;;;;;;;;;4946981;28;20290;-82
2023/11/22 11:05:28;;;;;;;4.27;3.93;;;;;;;;;;4953161;28;20238;-79
2023/11/22 11:08:10;;;;;;;4.40;4.00;;;;;;;;;;4947112;28;20788;-81
2023/11/22 11:10:43;;;;;;;5.57;3.87;;;;;;;;;;4949826;28;20358;-82
2023/11/22 11:13:09;;;;;;;4.33;3.93;;;;;;;;;;4932298;28;20238;-79
2023/11/22 11:15:40;;;;;;;4.50;4.10;;;;;;;;;;4946472;28;20404;-82
2023/11/22 11:18:10;;;;;;;4.37;4.07;;;;;;;;;;4948324;28;20234;-82
2023/11/22 11:20:49;;;;;;;5.87;3.77;;;;;;;;;;4953571;28;20226;-79
2023/11/22 11:23:25;;;;;;;4.13;3.73;;;;;;;;;;4965749;28;20296;-79
2023/11/22 11:25:54;;;;;;;3.70;3.40;;;;;;;;;;4946741;28;20244;-81
2023/11/22 11:28:21;;;;;;;4.10;3.70;;;;;;;;;;4949180;28;20297;-79
2023/11/22 11:30:48;;;;;;;3.73;3.43;;;;;;;;;;4971219;28;20226;-79
2023/11/22 11:33:17;;;;;;;3.90;3.50;;;;;;;;;;4927093;28;20242;-77
2023/11/22 11:35:52;;;;;;;3.77;3.47;;;;;;;;;;4966717;28;20222;-80
2023/11/22 11:38:21;;;;;;;4.67;3.00;;;;;;;;;;4949266;28;20231;-81
2023/11/22 11:40:49;;;;;;;4.47;3.37;;;;;;;;;;4949802;28;20233;-78
2023/11/22 11:43:14;;;;;;;3.53;3.23;;;;;;;;;;4936091;28;20605;-81
2023/11/22 11:45:46;;;;;;;4.03;3.67;;;;;;;;;;4951974;28;20234;-77
2023/11/22 11:48:15;;;;;;;5.00;3.10;;;;;;;;;;4950337;28;20223;-76
2023/11/22 11:50:42;;;;;;;3.60;3.30;;;;;;;;;;4929780;28;20233;-78
2023/11/22 11:53:08;;;;;;;4.13;3.40;;;;;;;;;;4947070;28;21959;-80
2023/11/22 11:55:37;;;;;;;4.87;3.80;;;;;;;;;;4946893;28;20231;-78
2023/11/22 11:58:09;;;;;;;3.20;2.90;;;;;;;;;;4948071;28;20288;-79
2023/11/22 12:00:41;;;;;;;3.30;3.00;;;;;;;;;;4939760;28;20285;-79
2023/11/22 12:03:09;;;;;;;3.27;2.97;;;;;;;;;;4945412;28;20614;-80
2023/11/22 12:05:40;;;;;;;4.67;3.07;;;;;;;;;;4936537;28;20250;-77
2023/11/22 12:08:08;;;;;;;3.53;3.23;;;;;;;;;;4965564;28;20257;-80
2023/11/22 12:10:36;;;;;;;3.00;2.80;;;;;;;;;;4948337;28;20237;-79
2023/11/22 12:13:02;;;;;;;4.27;3.07;;;;;;;;;;4946748;28;20865;-80
2023/11/22 12:15:30;;;;;;;3.10;2.80;;;;;;;;;;4947470;28;20237;-80
2023/11/22 12:17:57;;;;;;;2.90;2.67;;;;;;;;;;4942335;28;20247;-81
2023/11/22 12:20:26;;;;;;;3.23;2.93;;;;;;;;;;4954822;28;20229;-81
2023/11/22 12:22:51;;;;;;;3.30;3.00;;;;;;;;;;4920931;28;20235;-80
2023/11/22 12:25:21;;;;;;;2.90;2.70;;;;;;;;;;4932905;28;20245;-79
2023/11/22 12:27:47;;;;;;;2.47;2.27;;;;;;;;;;4937497;28;20278;-77
2023/11/22 12:30:45;;;;;;;3.97;2.67;;;;;;;;;;4960689;28;20679;-78
2023/11/22 12:33:15;;;;;;;2.77;2.50;;;;;;;;;;4939082;28;20709;-80
2023/11/22 12:35:43;;;;;;;2.87;2.50;;;;;;;;;;4953642;28;20237;-77
2023/11/22 12:38:11;;;;;;;2.60;2.40;;;;;;;;;;4954726;28;20226;-78
2023/11/22 12:40:42;;;;;;;2.90;2.60;;;;;;;;;;4934938;28;20621;-81
2023/11/22 12:43:09;;;;;;;2.60;2.40;;;;;;;;;;4942847;28;20677;-80
2023/11/22 12:45:38;;;;;;;3.03;2.63;;;;;;;;;;4946305;28;20231;-79
2023/11/22 12:48:29;;;;;;;2.60;2.40;;;;;;;;;;4937057;28;20230;-78
2023/11/22 12:50:55;;;;;;;2.87;2.37;;;;;;;;;;4976947;28;20918;-79
2023/11/22 12:53:21;;;;;;;4.17;2.57;;;;;;;;;;4947017;28;20810;-78
2023/11/22 12:55:48;;;;;;;2.50;2.30;;;;;;;;;;4950154;28;20223;-79
2023/11/22 12:58:18;;;;;;;2.70;2.50;;;;;;;;;;4954829;28;20378;-78
2023/11/22 13:00:48;;;;;;;3.03;2.37;;;;;;;;;;4948631;28;20723;-79
2023/11/22 13:03:16;;;;;;;2.30;2.10;;;;;;;;;;4930723;28;20226;-79
2023/11/22 13:05:45;;;;;;;2.63;2.20;;;;;;;;;;4942151;28;20237;-80
2023/11/22 13:08:13;;;;;;;2.90;2.57;;;;;;;;;;4940613;28;20480;-78
2023/11/22 13:11:04;;;;;;;2.50;2.30;;;;;;;;;;4940187;28;20237;-79
2023/11/22 13:13:30;;;;;;;2.67;2.40;;;;;;;;;;4950262;28;20758;-80
2023/11/22 13:15:57;;;;;;;2.37;2.17;;;;;;;;;;4944631;28;20253;-77
2023/11/22 13:18:26;;;;;;;2.93;2.23;;;;;;;;;;4946929;28;20785;-80
2023/11/22 13:20:51;;;;;;;2.80;2.27;;;;;;;;;;4942650;28;20242;-80
2023/11/22 13:23:17;;;;;;;2.53;2.33;;;;;;;;;;4939522;28;20257;-80
2023/11/22 13:25:44;;;;;;;2.40;2.20;;;;;;;;;;4932304;28;20245;-78
2023/11/22 13:28:09;;;;;;;3.50;3.07;;;;;;;;;;4947317;28;20218;-80
2023/11/22 13:30:35;;;;;;;14.00;10.67;;;;;;;;;;4938832;28;20269;-78
2023/11/22 13:33:03;;;;;;;12.97;8.07;;;;;;;;;;4966143;28;20245;-80
2023/11/22 13:35:31;;;;;;;7.10;4.67;;;;;;;;;;4947863;28;21119;-79
2023/11/22 13:38:01;;;;;;;5.20;3.33;;;;;;;;;;4965972;28;20233;-79
2023/11/22 13:40:29;;;;;;;6.00;5.50;;;;;;;;;;4942770;28;20229;-80
2023/11/22 13:42:57;;;;;;;2.83;2.30;;;;;;;;;;4949139;28;21551;-79
2023/11/22 13:45:23;;;;;;;2.30;2.20;;;;;;;;;;4953017;28;20225;-78
2023/11/22 13:48:00;;;;;;;2.30;2.03;;;;;;;;;;4952848;28;20230;-80
2023/11/22 13:50:26;;;;;;;3.13;2.93;;;;;;;;;;4947142;28;20232;-79
2023/11/22 13:52:58;;;;;;;2.63;2.33;;;;;;;;;;4944570;28;21068;-78
2023/11/22 13:55:24;;;;;;;2.63;2.10;;;;;;;;;;4930469;28;20233;-79
2023/11/22 13:57:55;;;;;;;2.50;2.10;;;;;;;;;;4940363;28;20230;-79
2023/11/22 14:00:26;;;;;;;2.30;2.10;;;;;;;;;;4944640;28;20229;-78
2023/11/22 14:03:04;;;;;;;2.33;2.10;;;;;;;;;;4959583;28;20261;-77
2023/11/22 14:05:29;;;;;;;6.50;4.90;;;;;;;;;;4935478;28;20238;-79
2023/11/22 14:07:55;;;;;;;6.23;3.27;;;;;;;;;;4950836;28;20292;-77
2023/11/22 14:10:22;;;;;;;3.10;2.77;;;;;;;;;;4958189;28;20217;-79
2023/11/22 14:12:48;;;;;;;2.37;2.20;;;;;;;;;;4949398;28;20325;-78
2023/11/22 14:15:13;;;;;;;3.10;2.27;;;;;;;;;;4950387;28;20222;-79
2023/11/22 14:17:40;;;;;;;3.63;2.37;;;;;;;;;;4920575;28;20229;-79
2023/11/22 14:20:21;;;;;;;2.53;2.33;;;;;;;;;;4958033;28;20230;-78
2023/11/22 14:22:50;;;;;;;2.83;2.63;;;;;;;;;;4966660;28;20234;-79
2023/11/22 14:25:16;;;;;;;2.73;2.53;;;;;;;;;;4947437;28;20230;-80
2023/11/22 14:27:42;;;;;;;2.53;2.30;;;;;;;;;;4960451;28;20633;-79
2023/11/22 14:30:10;;;;;;;2.50;2.27;;;;;;;;;;4949012;28;20313;-76
2023/11/22 14:32:35;;;;;;;2.73;2.30;;;;;;;;;;4945636;28;20225;-80
2023/11/22 14:35:10;;;;;;;2.87;2.60;;;;;;;;;;4947910;28;20890;-77
2023/11/22 14:37:37;;;;;;;2.90;2.47;;;;;;;;;;4956942;28;20230;-77
2023/11/22 14:40:23;;;;;;;3.67;2.70;;;;;;;;;;4957935;28;20262;-77
2023/11/22 14:42:51;;;;;;;3.03;2.80;;;;;;;;;;4965324;28;20262;-77
2023/11/22 14:45:19;;;;;;;3.97;2.43;;;;;;;;;;4967115;28;20230;-78
2023/11/22 14:47:45;;;;;;;2.93;2.73;;;;;;;;;;4947680;28;20280;-77